Pagrindinis puslapis
METAR-TAF:

METAR-TAF

Oro uostai :

Kuopijas, Suomija

platuma: 63-01N, ilguma: 027-48E, Aukštis: 98 m

Dabartinis oras

Ataskaita buvo paskelbta 18 minutes, ne 05:50 UTC
Vėjas 7 kt iš Vakarų/Pietvakarių
Temperatūra -13°C
Drėgmė 85%
Slėgis 992 hPa
Matomumas 10 km arba daugiau
sniegas

METAR: EFKU 020550Z AUTO 25007KT 9999 -SHSN NCD M13/M15 Q0992

Laikas: 08:08 (06:08 UTC)

Prognozė

Ataskaita buvo paskelbta 31 minutes, ne 05:37 UTC
Prognozė galioja nuo 02 metu 06 UTC su 03 metu 06 UTC
Vėjas 6 kt iš Vakarų/Pietvakarių
Matomumas 10 km arba daugiau
Mažai debesys ne aukštis 2000 ft
Tikimybė 30% :
Laikinai
nuo 02 metu 10 UTC su 02 metu 24 UTC
Matomumas: 1500 m
sniegas, rūkana

TAF: EFKU 020537Z 0206/0306 24006KT 9999 FEW020 PROB30 TEMPO 0210/0224 1500 -SN BR

Orai ataskaitas ir orų prognozės (METAR, TAF).

turimą stotys yra geltonos ir raudonos taškus žemėlapyje.

Perkelti pele per norėdami pamatyti stoties vardą.

Tada spustelėkite, norėdami matyti oro stebėjimo ir prognozės.

Norėdami pakeisti žemėlapį: spustelėkite ant žalios mygtukų su juodo kryžiaus žemyn,; žalią mygtuką su brūkšneliu, jei norite nutolinti; arba žalių rodyklių gretimoms žemėlapius.


METAR-TAF: